Ramon, New Mexico
Current Conditions -  °F | °C
As of 5:07 PM on Monday 20 Oct 2014 (Local Time) from K4MR Reporting Station
Thunderstorm Thunderstorm  
Wind Chill: 63°   Ceiling: 5000
Heat Index: 63°   Visibility: 10mi
Dew Point: 52°   Wind: 8mph
Humidity: 68%   Direction: 260°W
Pressure: 30.11"   Gusts: NA
Location:  34.3529°N, 104.601°W
Report Text: K4MR 202307Z AUTO 26007KT 10SM -TSRA SCT020 BKN050 17/11 A3011 RMK AO2 LTG DSNT NW
Loading
Personal Weather Stations






























Interactive Weather Map
Tropical Storm Tracking
New forecast layout! Learn more

10-Day Weather Forecast

Advertisements
Track Severe Weather on mobile